Time;durP1;ratioP1;P1;durP2;ratioP2;P2;SDS_P1;SDS_P2;PMS_P1;PMS_P2;Temp;Humidity;BMP_temperature;BMP_pressure;BME280_temperature;BME280_humidity;BME280_pressure;Samples;Min_cycle;Max_cycle;Signal;HPM_P1;HPM_P2
2021/09/11 00:00:07;;;;;;;12.17;7.77;;;16.10;99.90;;;;;;5020784;28;20902;-64
2021/09/11 00:02:36;;;;;;;11.63;7.33;;;16.10;99.90;;;;;;5021561;28;20197;-64
2021/09/11 00:05:07;;;;;;;9.77;7.50;;;16.10;99.90;;;;;;5036488;28;20186;-65
2021/09/11 00:07:36;;;;;;;10.20;7.67;;;16.10;99.90;;;;;;5024533;28;20395;-64
2021/09/11 00:10:05;;;;;;;8.07;7.23;;;16.10;99.90;;;;;;5022370;28;20186;-64
2021/09/11 00:12:35;;;;;;;10.07;7.13;;;16.10;99.90;;;;;;5017580;28;20232;-64
2021/09/11 00:15:04;;;;;;;14.87;7.93;;;16.10;99.90;;;;;;5021369;28;20248;-64
2021/09/11 00:17:32;;;;;;;9.53;7.83;;;16.00;99.90;;;;;;5024011;28;20732;-64
2021/09/11 00:20:01;;;;;;;11.40;7.67;;;16.10;99.90;;;;;;5023284;28;20289;-64
2021/09/11 00:22:31;;;;;;;8.27;7.13;;;16.10;99.90;;;;;;5022546;28;20198;-64
2021/09/11 00:25:00;;;;;;;11.70;8.27;;;16.10;99.90;;;;;;5023016;28;20200;-64
2021/09/11 00:27:28;;;;;;;12.77;8.43;;;16.10;99.90;;;;;;5025590;28;20210;-64
2021/09/11 00:29:57;;;;;;;11.47;8.07;;;16.20;99.90;;;;;;5002857;28;20201;-64
2021/09/11 00:32:25;;;;;;;13.03;7.90;;;16.20;99.90;;;;;;5019385;28;20205;-64
2021/09/11 00:34:54;;;;;;;13.60;8.10;;;16.20;99.90;;;;;;5023099;28;20284;-64
2021/09/11 00:37:22;;;;;;;9.13;7.77;;;16.40;99.90;;;;;;5018162;28;20190;-64
2021/09/11 00:39:52;;;;;;;12.23;7.90;;;16.40;99.90;;;;;;5024253;28;20214;-65
2021/09/11 00:42:20;;;;;;;9.43;7.73;;;16.50;99.90;;;;;;5019296;28;20236;-64
2021/09/11 00:44:49;;;;;;;16.50;9.03;;;16.60;99.90;;;;;;5019987;28;20247;-64
2021/09/11 00:47:17;;;;;;;18.33;8.60;;;16.60;99.90;;;;;;5020069;28;20199;-64
2021/09/11 00:49:45;;;;;;;16.30;8.93;;;16.50;99.90;;;;;;5023709;28;20224;-64
2021/09/11 00:52:14;;;;;;;14.53;8.37;;;16.50;99.90;;;;;;5019401;28;20730;-64
2021/09/11 00:54:44;;;;;;;12.63;8.77;;;16.50;99.90;;;;;;5021090;28;20194;-64
2021/09/11 00:57:13;;;;;;;15.10;8.90;;;16.50;99.90;;;;;;5021051;28;20419;-64
2021/09/11 00:59:42;;;;;;;12.63;8.10;;;16.60;99.90;;;;;;5023394;28;20205;-64
2021/09/11 01:02:10;;;;;;;9.37;8.33;;;16.60;99.90;;;;;;5019421;28;20280;-64
2021/09/11 01:04:39;;;;;;;10.87;8.00;;;16.70;99.90;;;;;;5019865;28;20525;-64
2021/09/11 01:07:08;;;;;;;12.27;8.80;;;16.70;99.90;;;;;;5036423;28;20262;-64
2021/09/11 01:09:36;;;;;;;11.27;8.63;;;16.70;99.90;;;;;;5019758;28;20231;-64
2021/09/11 01:12:07;;;;;;;14.67;8.83;;;16.70;99.90;;;;;;5018219;28;20260;-64
2021/09/11 01:14:36;;;;;;;11.47;8.23;;;16.60;99.90;;;;;;5018696;28;20654;-64
2021/09/11 01:17:05;;;;;;;14.00;8.50;;;16.60;99.90;;;;;;5017744;28;20190;-65
2021/09/11 01:19:33;;;;;;;11.17;8.53;;;16.70;99.90;;;;;;5021785;28;20256;-64
2021/09/11 01:22:02;;;;;;;15.27;8.70;;;16.60;99.90;;;;;;5014314;28;20257;-64
2021/09/11 01:24:32;;;;;;;12.33;8.50;;;16.60;99.90;;;;;;5024068;28;20719;-64
2021/09/11 01:27:00;;;;;;;15.30;8.33;;;16.60;99.90;;;;;;5023287;28;20707;-64
2021/09/11 01:29:31;;;;;;;11.97;8.30;;;16.70;99.90;;;;;;5022392;28;20208;-65
2021/09/11 01:31:59;;;;;;;13.77;9.13;;;16.70;99.90;;;;;;5018776;28;20235;-65
2021/09/11 01:34:30;;;;;;;16.33;8.60;;;16.70;99.90;;;;;;5022343;28;20193;-64
2021/09/11 01:36:59;;;;;;;12.10;8.37;;;16.60;99.90;;;;;;5015902;28;20622;-65
2021/09/11 01:39:27;;;;;;;15.37;8.23;;;16.60;99.90;;;;;;5024034;28;20547;-64
2021/09/11 01:41:57;;;;;;;12.67;8.70;;;16.60;99.90;;;;;;5023368;28;20280;-65
2021/09/11 01:44:25;;;;;;;14.47;8.10;;;16.60;99.90;;;;;;5022951;28;20594;-65
2021/09/11 01:46:54;;;;;;;14.70;8.70;;;16.60;99.90;;;;;;5020336;28;20680;-65
2021/09/11 01:49:23;;;;;;;11.53;7.80;;;16.60;99.90;;;;;;5020625;28;20328;-64
2021/09/11 01:51:51;;;;;;;13.30;8.77;;;16.50;99.90;;;;;;5024162;28;20679;-64
2021/09/11 01:54:19;;;;;;;12.37;8.53;;;16.60;99.90;;;;;;5023738;28;20222;-63
2021/09/11 01:56:48;;;;;;;12.97;8.37;;;16.60;99.90;;;;;;5023900;28;20206;-66
2021/09/11 01:59:17;;;;;;;11.77;8.57;;;16.60;99.90;;;;;;5022442;28;20723;-64
2021/09/11 02:01:46;;;;;;;13.33;8.63;;;16.60;99.90;;;;;;5025710;28;20344;-64
2021/09/11 02:04:14;;;;;;;11.27;7.90;;;16.60;99.90;;;;;;5025230;28;20197;-65
2021/09/11 02:06:43;;;;;;;11.07;8.73;;;16.60;99.90;;;;;;5020925;28;20458;-64
2021/09/11 02:09:12;;;;;;;15.23;8.93;;;16.50;99.90;;;;;;5024134;28;20255;-64
2021/09/11 02:11:41;;;;;;;11.93;8.27;;;16.60;99.90;;;;;;5023859;28;20268;-64
2021/09/11 02:14:09;;;;;;;13.23;8.80;;;16.60;99.90;;;;;;5017189;28;20197;-64
2021/09/11 02:16:39;;;;;;;10.03;8.13;;;16.50;99.90;;;;;;5022459;28;20205;-64
2021/09/11 02:19:08;;;;;;;11.53;8.63;;;16.60;99.90;;;;;;5019654;28;20190;-64
2021/09/11 02:21:36;;;;;;;12.63;8.30;;;16.60;99.90;;;;;;5020780;28;20205;-64
2021/09/11 02:24:05;;;;;;;14.07;8.50;;;16.60;99.90;;;;;;5023529;28;20741;-64
2021/09/11 02:26:34;;;;;;;10.43;7.73;;;16.60;99.90;;;;;;5021579;28;20214;-64
2021/09/11 02:29:02;;;;;;;11.30;7.67;;;16.60;99.90;;;;;;5022963;28;20226;-64
2021/09/11 02:31:31;;;;;;;12.93;8.10;;;16.60;99.90;;;;;;5024918;28;20196;-65
2021/09/11 02:34:01;;;;;;;11.37;8.17;;;16.60;99.90;;;;;;5038890;28;20233;-65
2021/09/11 02:36:30;;;;;;;13.83;9.17;;;16.50;99.90;;;;;;5020455;28;20213;-64
2021/09/11 02:38:58;;;;;;;11.33;7.50;;;16.60;99.90;;;;;;5026593;28;20193;-65
2021/09/11 02:41:26;;;;;;;13.90;8.00;;;16.60;99.90;;;;;;5022927;28;20230;-64
2021/09/11 02:43:55;;;;;;;10.60;7.70;;;16.60;99.90;;;;;;5022413;28;20238;-64
2021/09/11 02:46:23;;;;;;;11.13;7.67;;;16.60;99.90;;;;;;5024290;28;20217;-64
2021/09/11 02:48:52;;;;;;;13.80;7.67;;;16.60;99.90;;;;;;5023716;28;20201;-64
2021/09/11 02:51:22;;;;;;;10.93;7.07;;;16.60;99.90;;;;;;5027583;28;20243;-64
2021/09/11 02:53:50;;;;;;;12.17;6.83;;;16.60;99.90;;;;;;5026662;28;20269;-64
2021/09/11 02:56:19;;;;;;;10.97;7.13;;;16.60;99.90;;;;;;5025458;28;20266;-64
2021/09/11 02:58:47;;;;;;;17.33;7.60;;;16.60;99.90;;;;;;5026519;28;20193;-64
2021/09/11 03:01:16;;;;;;;8.47;6.70;;;16.70;99.90;;;;;;5023215;28;20237;-66
2021/09/11 03:03:45;;;;;;;15.87;7.17;;;16.60;99.90;;;;;;5027485;28;20196;-64
2021/09/11 03:06:14;;;;;;;12.73;6.63;;;16.60;99.90;;;;;;5020971;28;20185;-64
2021/09/11 03:08:44;;;;;;;13.80;6.90;;;16.60;99.90;;;;;;5022375;28;20202;-64
2021/09/11 03:11:13;;;;;;;9.40;6.70;;;16.60;99.90;;;;;;5023286;28;20181;-65
2021/09/11 03:13:42;;;;;;;12.17;6.23;;;16.50;99.90;;;;;;5022219;28;20249;-64
2021/09/11 03:16:11;;;;;;;10.53;6.40;;;16.60;99.90;;;;;;5017964;28;20204;-63
2021/09/11 03:18:47;;;;;;;12.27;6.40;;;16.70;99.90;;;;;;5019477;28;20563;-64
2021/09/11 03:21:16;;;;;;;12.50;6.80;;;16.70;99.90;;;;;;5038750;28;20206;-64
2021/09/11 03:23:46;;;;;;;10.33;6.70;;;16.70;99.90;;;;;;5037554;28;20298;-65
2021/09/11 03:26:16;;;;;;;13.60;6.90;;;16.60;99.90;;;;;;5020878;28;20197;-64
2021/09/11 03:29:02;;;;;;;11.27;6.90;;;16.60;99.90;;;;;;5041331;28;20342;-64
2021/09/11 03:31:31;;;;;;;11.43;6.87;;;16.60;99.90;;;;;;5020094;28;20202;-64
2021/09/11 03:34:00;;;;;;;12.33;7.27;;;16.60;99.90;;;;;;5006977;28;20194;-65
2021/09/11 03:36:28;;;;;;;10.20;6.77;;;16.60;99.90;;;;;;5036727;28;20684;-66
2021/09/11 03:38:58;;;;;;;10.03;6.47;;;16.60;99.90;;;;;;5024642;28;20531;-64
2021/09/11 03:41:26;;;;;;;13.53;6.97;;;16.60;99.90;;;;;;5021981;28;20277;-64
2021/09/11 03:43:55;;;;;;;11.23;6.30;;;16.60;99.90;;;;;;5041427;28;20277;-64
2021/09/11 03:46:23;;;;;;;16.67;6.33;;;16.60;99.90;;;;;;5025028;28;20201;-65
2021/09/11 03:48:52;;;;;;;13.80;6.67;;;16.60;99.90;;;;;;5017124;28;20328;-64
2021/09/11 03:51:20;;;;;;;10.43;6.00;;;16.60;99.90;;;;;;5015261;28;20192;-64
2021/09/11 03:53:49;;;;;;;10.83;6.47;;;16.60;99.90;;;;;;5020156;28;20205;-64
2021/09/11 03:56:19;;;;;;;12.63;6.87;;;16.60;99.90;;;;;;5035619;28;20189;-65
2021/09/11 03:58:47;;;;;;;16.50;6.83;;;16.70;99.90;;;;;;5023764;28;20197;-64
2021/09/11 04:01:16;;;;;;;10.33;6.37;;;16.60;99.90;;;;;;5019110;28;20213;-65
2021/09/11 04:03:45;;;;;;;10.27;6.50;;;16.70;99.90;;;;;;5019493;28;20281;-64
2021/09/11 04:06:14;;;;;;;9.17;6.13;;;16.70;99.90;;;;;;5020044;28;20201;-64
2021/09/11 04:08:42;;;;;;;9.13;6.70;;;16.70;99.90;;;;;;5026585;28;20630;-64
2021/09/11 04:11:11;;;;;;;11.90;6.43;;;16.60;99.90;;;;;;5021097;28;20231;-64
2021/09/11 04:13:44;;;;;;;13.90;6.57;;;16.70;99.90;;;;;;5021989;28;20197;-64
2021/09/11 04:16:21;;;;;;;14.93;7.30;;;16.70;99.90;;;;;;5005721;28;20495;-65
2021/09/11 04:19:30;;;;;;;10.37;7.03;;;16.70;99.90;;;;;;5015524;28;20294;-64
2021/09/11 04:21:59;;;;;;;7.77;6.23;;;16.70;99.90;;;;;;5025098;28;20588;-66
2021/09/11 04:24:28;;;;;;;11.30;6.53;;;16.70;99.90;;;;;;5022411;28;20212;-64
2021/09/11 04:26:58;;;;;;;10.50;7.20;;;16.70;99.90;;;;;;5021788;28;20202;-64
2021/09/11 04:29:28;;;;;;;13.00;7.03;;;16.70;99.90;;;;;;5021675;28;20426;-64
2021/09/11 04:31:57;;;;;;;14.93;6.70;;;16.70;99.90;;;;;;5031248;28;20229;-66
2021/09/11 04:34:25;;;;;;;10.33;6.90;;;16.70;99.90;;;;;;5002170;28;20210;-65
2021/09/11 04:36:54;;;;;;;10.00;6.97;;;16.70;99.90;;;;;;5021317;28;20198;-64
2021/09/11 04:39:22;;;;;;;13.47;7.10;;;16.70;99.90;;;;;;5024813;28;20202;-64
2021/09/11 04:41:50;;;;;;;13.70;7.13;;;16.70;99.90;;;;;;5022698;28;20217;-64
2021/09/11 04:44:19;;;;;;;12.07;7.13;;;16.70;99.90;;;;;;5022334;28;20317;-64
2021/09/11 04:46:48;;;;;;;12.73;7.23;;;16.80;99.90;;;;;;5020988;28;20297;-64
2021/09/11 04:49:17;;;;;;;14.00;7.87;;;16.70;99.90;;;;;;5023555;28;20186;-64
2021/09/11 04:51:45;;;;;;;11.10;7.50;;;16.80;99.90;;;;;;5022468;28;20197;-64
2021/09/11 04:54:13;;;;;;;10.60;7.40;;;16.80;99.90;;;;;;5021690;28;20194;-64
2021/09/11 04:56:44;;;;;;;7.70;6.87;;;16.80;99.90;;;;;;5022918;28;20693;-65
2021/09/11 04:59:13;;;;;;;14.47;8.50;;;16.80;99.90;;;;;;5020882;28;20199;-64
2021/09/11 05:01:41;;;;;;;13.50;7.83;;;16.80;99.90;;;;;;5014252;28;20210;-64
2021/09/11 05:04:14;;;;;;;13.03;7.63;;;16.70;99.90;;;;;;5018596;28;20210;-64
2021/09/11 05:06:43;;;;;;;11.70;8.20;;;16.70;99.90;;;;;;5000793;28;20194;-64
2021/09/11 05:09:11;;;;;;;8.93;6.87;;;16.70;99.90;;;;;;5022119;28;20205;-64
2021/09/11 05:11:40;;;;;;;9.97;7.80;;;16.70;99.90;;;;;;5022383;28;20194;-64
2021/09/11 05:14:08;;;;;;;13.73;7.93;;;16.70;99.90;;;;;;5022171;28;20226;-64
2021/09/11 05:16:36;;;;;;;9.37;7.37;;;16.80;99.90;;;;;;5021480;28;20700;-64
2021/09/11 05:19:05;;;;;;;15.47;7.73;;;16.80;99.90;;;;;;5020747;28;20190;-65
2021/09/11 05:21:37;;;;;;;12.87;7.47;;;16.80;99.90;;;;;;5018425;28;20302;-64
2021/09/11 05:24:06;;;;;;;11.57;7.07;;;16.80;99.90;;;;;;5016971;28;20232;-64
2021/09/11 05:26:34;;;;;;;13.00;8.07;;;16.80;99.90;;;;;;5022034;28;20201;-64
2021/09/11 05:29:03;;;;;;;11.97;8.23;;;16.80;99.90;;;;;;5023768;28;20189;-64
2021/09/11 05:31:31;;;;;;;12.40;7.50;;;16.80;99.90;;;;;;5024079;28;20225;-64
2021/09/11 05:34:00;;;;;;;15.20;7.90;;;16.80;99.90;;;;;;5023151;28;20281;-64
2021/09/11 05:36:28;;;;;;;12.53;8.40;;;16.80;99.90;;;;;;5025869;28;20195;-64
2021/09/11 05:38:58;;;;;;;14.70;8.70;;;16.80;99.90;;;;;;5024051;28;20284;-64
2021/09/11 05:41:26;;;;;;;12.43;8.53;;;16.90;99.90;;;;;;5023543;28;20975;-64
2021/09/11 05:43:55;;;;;;;14.80;8.40;;;16.80;99.90;;;;;;5020240;28;20234;-63
2021/09/11 05:46:23;;;;;;;14.87;8.00;;;16.80;99.90;;;;;;5027678;28;20194;-64
2021/09/11 05:48:52;;;;;;;11.07;7.97;;;16.80;99.90;;;;;;5024599;28;20199;-64
2021/09/11 05:51:20;;;;;;;15.23;8.30;;;16.90;99.90;;;;;;5019367;28;20305;-64
2021/09/11 05:53:49;;;;;;;16.77;8.23;;;16.90;99.90;;;;;;5025797;28;20630;-64
2021/09/11 05:56:19;;;;;;;10.77;8.07;;;17.00;99.90;;;;;;5023800;28;20289;-64
2021/09/11 05:58:48;;;;;;;13.27;8.33;;;17.00;99.90;;;;;;5026288;28;20288;-64
2021/09/11 06:01:16;;;;;;;12.47;7.90;;;17.00;99.90;;;;;;5024352;28;20225;-64
2021/09/11 06:03:45;;;;;;;12.73;8.10;;;17.00;99.90;;;;;;5024991;28;20211;-64
2021/09/11 06:06:13;;;;;;;13.73;8.03;;;17.00;99.90;;;;;;5024713;28;20228;-64
2021/09/11 06:08:42;;;;;;;11.17;8.23;;;16.90;99.90;;;;;;5022591;28;20265;-65
2021/09/11 06:11:10;;;;;;;10.53;7.73;;;16.90;99.90;;;;;;5024470;28;20671;-63
2021/09/11 06:13:40;;;;;;;11.37;8.30;;;17.00;99.90;;;;;;5022930;28;20230;-64
2021/09/11 06:16:08;;;;;;;13.10;8.30;;;16.90;99.90;;;;;;5020746;28;20225;-64
2021/09/11 06:18:37;;;;;;;10.10;7.80;;;16.90;99.90;;;;;;5025554;28;20225;-65
2021/09/11 06:21:05;;;;;;;11.03;7.83;;;16.90;99.90;;;;;;5017782;28;20371;-64
2021/09/11 06:23:34;;;;;;;12.90;7.93;;;17.00;99.90;;;;;;5023418;28;20223;-64
2021/09/11 06:26:02;;;;;;;14.17;7.63;;;17.00;99.90;;;;;;5024569;28;20638;-64
2021/09/11 06:28:31;;;;;;;15.13;8.17;;;17.10;99.90;;;;;;5024680;28;20289;-63
2021/09/11 06:31:00;;;;;;;12.13;7.80;;;17.10;99.90;;;;;;5021191;28;20494;-64
2021/09/11 06:33:29;;;;;;;10.50;7.40;;;17.20;99.90;;;;;;5021582;28;20206;-64
2021/09/11 06:35:57;;;;;;;10.43;7.67;;;17.20;99.90;;;;;;5022742;28;20882;-64
2021/09/11 06:38:26;;;;;;;14.67;7.70;;;17.20;99.90;;;;;;5022272;28;20290;-64
2021/09/11 06:40:54;;;;;;;10.47;8.37;;;17.30;99.90;;;;;;5018122;28;20197;-64
2021/09/11 06:43:23;;;;;;;12.63;7.30;;;17.30;99.90;;;;;;5019159;28;20231;-64
2021/09/11 06:45:51;;;;;;;11.13;7.63;;;17.40;99.90;;;;;;5021035;28;20199;-64
2021/09/11 06:48:21;;;;;;;9.83;7.17;;;17.40;99.90;;;;;;5020328;28;20204;-63
2021/09/11 06:50:50;;;;;;;9.37;7.30;;;17.50;99.90;;;;;;5023900;28;20255;-64
2021/09/11 06:53:18;;;;;;;12.13;6.83;;;17.40;99.90;;;;;;5019513;28;20571;-64
2021/09/11 06:55:47;;;;;;;9.57;7.03;;;17.40;99.90;;;;;;5023218;28;20197;-64
2021/09/11 06:58:15;;;;;;;10.43;7.33;;;17.50;99.90;;;;;;5023616;28;20196;-64
2021/09/11 07:00:43;;;;;;;11.70;7.50;;;17.50;99.90;;;;;;5025829;28;20255;-66
2021/09/11 07:03:12;;;;;;;12.10;7.73;;;17.50;99.90;;;;;;5024055;28;20469;-65
2021/09/11 07:05:42;;;;;;;9.50;7.17;;;17.50;99.90;;;;;;5023478;28;20209;-66
2021/09/11 07:08:11;;;;;;;13.77;7.00;;;17.60;99.90;;;;;;5026843;28;20201;-64
2021/09/11 07:10:39;;;;;;;12.97;7.50;;;17.60;99.90;;;;;;5023408;28;20204;-64
2021/09/11 07:13:07;;;;;;;9.50;7.07;;;17.70;99.90;;;;;;5025374;28;20233;-64
2021/09/11 07:15:36;;;;;;;7.70;6.90;;;17.60;99.90;;;;;;5022734;28;20194;-64
2021/09/11 07:18:04;;;;;;;10.87;6.40;;;17.60;99.90;;;;;;5026041;28;20204;-64
2021/09/11 07:20:33;;;;;;;10.53;6.93;;;17.60;99.90;;;;;;5019882;28;20221;-64
2021/09/11 07:23:03;;;;;;;9.57;7.00;;;17.80;99.90;;;;;;5025795;28;20208;-64
2021/09/11 07:25:32;;;;;;;12.40;7.00;;;17.90;99.90;;;;;;5021022;28;20205;-64
2021/09/11 07:28:00;;;;;;;10.97;6.80;;;18.10;99.90;;;;;;5016529;28;20560;-64
2021/09/11 07:30:29;;;;;;;8.27;6.80;;;18.20;99.90;;;;;;5022502;28;20245;-65
2021/09/11 07:32:58;;;;;;;8.40;6.33;;;18.20;99.90;;;;;;5032782;28;20201;-63
2021/09/11 07:35:26;;;;;;;8.33;6.50;;;18.40;99.90;;;;;;5023917;28;20193;-65
2021/09/11 07:37:55;;;;;;;10.53;7.03;;;18.60;99.90;;;;;;5024315;28;20218;-64
2021/09/11 07:40:25;;;;;;;9.70;6.70;;;18.60;99.90;;;;;;5016092;28;20189;-64
2021/09/11 07:42:53;;;;;;;7.27;6.50;;;18.60;99.90;;;;;;5021170;28;20201;-63
2021/09/11 07:45:22;;;;;;;11.30;7.10;;;18.70;99.90;;;;;;5022549;28;20225;-65
2021/09/11 07:47:50;;;;;;;9.77;6.90;;;18.60;99.90;;;;;;5028595;28;20193;-64
2021/09/11 07:50:25;;;;;;;10.30;7.20;;;18.60;99.90;;;;;;5021668;28;20683;-64
2021/09/11 07:52:54;;;;;;;10.73;7.30;;;18.60;99.90;;;;;;5025966;28;20217;-65
2021/09/11 07:55:27;;;;;;;8.53;7.10;;;18.50;99.90;;;;;;5023563;28;20691;-64
2021/09/11 07:57:55;;;;;;;12.07;7.63;;;18.50;99.90;;;;;;5019697;28;20201;-65
2021/09/11 08:00:24;;;;;;;7.47;6.77;;;18.50;99.90;;;;;;5022708;28;20589;-64
2021/09/11 08:02:52;;;;;;;11.07;7.53;;;18.60;99.90;;;;;;5021308;28;20729;-64
2021/09/11 08:05:22;;;;;;;11.50;7.70;;;18.40;99.90;;;;;;5022287;28;20743;-64
2021/09/11 08:07:50;;;;;;;12.00;7.50;;;18.40;99.90;;;;;;5024051;28;20194;-64
2021/09/11 08:10:19;;;;;;;8.80;7.40;;;18.60;99.90;;;;;;5025976;28;20229;-65
2021/09/11 08:12:49;;;;;;;10.63;7.87;;;18.70;99.90;;;;;;5019406;28;20226;-68
2021/09/11 08:15:19;;;;;;;8.73;7.63;;;18.80;99.90;;;;;;5022578;28;20660;-64
2021/09/11 08:17:47;;;;;;;9.53;8.17;;;19.00;99.90;;;;;;5024571;28;20255;-65
2021/09/11 08:20:16;;;;;;;9.17;7.47;;;19.30;99.90;;;;;;5022109;28;20197;-66
2021/09/11 08:22:45;;;;;;;10.43;7.23;;;19.50;99.90;;;;;;5014608;28;20221;-65
2021/09/11 08:25:13;;;;;;;9.87;6.97;;;19.60;99.90;;;;;;5018278;28;20293;-64
2021/09/11 08:27:42;;;;;;;9.40;7.00;;;19.70;99.90;;;;;;5018324;28;20243;-65
2021/09/11 08:30:12;;;;;;;10.90;6.70;;;19.60;99.90;;;;;;5021186;28;20407;-65
2021/09/11 08:32:40;;;;;;;9.00;6.53;;;19.70;99.90;;;;;;5016507;28;20202;-64
2021/09/11 08:35:13;;;;;;;13.33;6.90;;;19.70;99.90;;;;;;5015042;28;20619;-66
2021/09/11 08:37:41;;;;;;;9.10;6.63;;;19.60;99.90;;;;;;5020722;28;20224;-65
2021/09/11 08:40:12;;;;;;;9.03;6.73;;;19.50;99.90;;;;;;5021475;28;20288;-65
2021/09/11 08:42:41;;;;;;;10.03;6.93;;;19.30;99.90;;;;;;5023848;28;20518;-65
2021/09/11 08:45:14;;;;;;;8.13;5.83;;;19.30;99.90;;;;;;5025645;28;20275;-65
2021/09/11 08:47:44;;;;;;;6.63;6.00;;;19.30;99.90;;;;;;5017533;28;20201;-65
2021/09/11 08:50:13;;;;;;;7.97;6.23;;;19.30;99.90;;;;;;5026053;28;20414;-65
2021/09/11 08:52:42;;;;;;;6.60;6.00;;;19.40;99.90;;;;;;5018947;28;20244;-65
2021/09/11 08:55:13;;;;;;;6.90;6.07;;;19.40;99.90;;;;;;5025797;28;20243;-66
2021/09/11 08:57:56;;;;;;;6.27;5.73;;;19.30;99.90;;;;;;5016032;28;20260;-65
2021/09/11 09:00:41;;;;;;;6.47;5.30;;;19.40;99.90;;;;;;5021209;28;20247;-65
2021/09/11 09:03:33;;;;;;;7.67;5.53;;;19.40;99.90;;;;;;5024016;28;20619;-65
2021/09/11 09:06:25;;;;;;;6.97;5.33;;;19.50;99.90;;;;;;5020757;28;20271;-65
2021/09/11 09:08:55;;;;;;;5.73;5.03;;;19.50;99.90;;;;;;5028101;28;20227;-66
2021/09/11 09:11:26;;;;;;;10.33;5.47;;;19.60;99.90;;;;;;5028108;28;20222;-66
2021/09/11 09:13:58;;;;;;;7.57;5.20;;;19.60;99.90;;;;;;5030503;28;20252;-65
2021/09/11 09:16:30;;;;;;;5.73;5.27;;;19.60;99.90;;;;;;5028078;28;20193;-65
2021/09/11 09:18:59;;;;;;;5.70;5.10;;;19.60;99.90;;;;;;5028392;28;20196;-64
2021/09/11 09:21:31;;;;;;;5.30;4.80;;;19.70;99.90;;;;;;5027425;28;20251;-65
2021/09/11 09:24:01;;;;;;;5.77;4.97;;;19.80;99.90;;;;;;5030510;28;20241;-65
2021/09/11 09:26:30;;;;;;;5.27;4.90;;;19.90;99.90;;;;;;5027082;28;20251;-68
2021/09/11 09:29:11;;;;;;;6.90;4.93;;;19.90;99.90;;;;;;5027885;28;20668;-65
2021/09/11 09:31:43;;;;;;;5.33;4.83;;;20.00;99.90;;;;;;5024123;28;20421;-65
2021/09/11 09:34:30;;;;;;;5.73;5.23;;;20.00;99.90;;;;;;5020473;28;20664;-64
2021/09/11 09:36:59;;;;;;;5.90;5.50;;;20.10;99.90;;;;;;5026727;28;20213;-65
2021/09/11 09:39:28;;;;;;;6.53;5.77;;;20.10;99.90;;;;;;5021389;28;20229;-64
2021/09/11 09:42:03;;;;;;;6.00;5.40;;;20.00;99.90;;;;;;5024115;28;20185;-65
2021/09/11 09:44:41;;;;;;;6.03;5.40;;;20.00;99.90;;;;;;5021975;28;20807;-66
2021/09/11 09:47:14;;;;;;;7.63;5.60;;;19.90;99.90;;;;;;5019990;28;20252;-66
2021/09/11 09:50:02;;;;;;;9.67;5.80;;;19.80;99.90;;;;;;5021847;28;20432;-66
2021/09/11 09:52:31;;;;;;;6.07;5.57;;;19.60;99.90;;;;;;5024859;28;20240;-65
2021/09/11 09:55:00;;;;;;;5.83;5.37;;;19.50;99.90;;;;;;5022589;28;20221;-65
2021/09/11 09:57:30;;;;;;;6.10;5.50;;;19.50;99.90;;;;;;5023622;28;20297;-65
2021/09/11 10:00:00;;;;;;;6.53;5.93;;;19.40;99.90;;;;;;5038998;28;20197;-65
2021/09/11 10:02:29;;;;;;;8.73;5.83;;;19.40;99.90;;;;;;5021322;28;20190;-65
2021/09/11 10:04:58;;;;;;;7.07;5.63;;;19.40;99.90;;;;;;5018228;28;20311;-65
2021/09/11 10:07:28;;;;;;;6.53;5.93;;;19.40;99.90;;;;;;5017748;28;20285;-65
2021/09/11 10:09:57;;;;;;;7.17;6.17;;;19.40;99.90;;;;;;5024043;28;20280;-65
2021/09/11 10:12:29;;;;;;;7.93;5.70;;;19.30;99.90;;;;;;5016032;28;20194;-65
2021/09/11 10:15:23;;;;;;;5.77;5.20;;;19.40;99.90;;;;;;5022477;28;20217;-66
2021/09/11 10:17:54;;;;;;;7.97;6.00;;;19.40;99.90;;;;;;5023606;28;20198;-66
2021/09/11 10:20:24;;;;;;;8.60;5.73;;;19.40;99.90;;;;;;5021860;28;20201;-65
2021/09/11 10:23:06;;;;;;;7.37;5.50;;;19.40;99.90;;;;;;5022116;28;20251;-65
2021/09/11 10:25:42;;;;;;;6.13;4.80;;;19.50;99.90;;;;;;5025907;28;20333;-65
2021/09/11 10:28:15;;;;;;;6.93;5.30;;;19.80;99.90;;;;;;5014091;28;20185;-65
2021/09/11 10:31:08;;;;;;;5.23;4.73;;;20.10;99.90;;;;;;5020998;28;20240;-65
2021/09/11 10:33:50;;;;;;;5.67;4.80;;;20.30;99.90;;;;;;5024194;28;20236;-65
2021/09/11 10:36:22;;;;;;;7.93;5.07;;;20.50;99.90;;;;;;5025621;28;20440;-65
2021/09/11 10:38:52;;;;;;;6.00;4.93;;;20.60;99.90;;;;;;5020388;28;20247;-66
2021/09/11 10:41:20;;;;;;;7.43;5.23;;;20.80;99.90;;;;;;5022608;28;20284;-65
2021/09/11 10:44:06;;;;;;;5.90;5.30;;;20.70;99.90;;;;;;5017624;28;20453;-65
2021/09/11 10:46:48;;;;;;;6.47;5.20;;;20.70;99.90;;;;;;5017948;28;20222;-65
2021/09/11 10:49:29;;;;;;;5.80;5.30;;;20.60;99.90;;;;;;5018585;28;20388;-65
2021/09/11 10:52:04;;;;;;;5.40;4.90;;;20.50;99.90;;;;;;5016877;28;20208;-65
2021/09/11 10:54:37;;;;;;;12.27;5.70;;;20.50;99.90;;;;;;5021463;28;20208;-65
2021/09/11 10:57:12;;;;;;;5.77;5.17;;;20.50;99.90;;;;;;5020237;28;20637;-65
2021/09/11 10:59:42;;;;;;;7.13;5.43;;;20.50;99.90;;;;;;5020897;28;20294;-66
2021/09/11 11:02:39;;;;;;;7.13;4.83;;;20.60;99.90;;;;;;5022624;28;20684;-65
2021/09/11 11:05:10;;;;;;;5.83;5.00;;;20.50;99.90;;;;;;5015054;28;20225;-65
2021/09/11 11:07:43;;;;;;;6.13;4.97;;;20.60;99.90;;;;;;5022254;28;20684;-67
2021/09/11 11:10:14;;;;;;;7.63;4.83;;;20.60;99.90;;;;;;5022406;28;20194;-66
2021/09/11 11:12:45;;;;;;;4.87;4.40;;;20.50;99.90;;;;;;5022151;28;20656;-65
2021/09/11 11:15:16;;;;;;;7.67;5.03;;;20.50;99.90;;;;;;5018786;28;20832;-66
2021/09/11 11:17:46;;;;;;;6.47;4.37;;;20.50;99.90;;;;;;5021089;28;20251;-66
2021/09/11 11:20:23;;;;;;;9.07;4.83;;;20.50;99.90;;;;;;5036786;28;20229;-66
2021/09/11 11:22:52;;;;;;;5.80;4.43;;;20.40;99.90;;;;;;5022370;28;20547;-67
2021/09/11 11:25:31;;;;;;;6.70;4.27;;;20.40;99.90;;;;;;5022838;28;20210;-65
2021/09/11 11:28:00;;;;;;;7.13;5.00;;;20.30;99.90;;;;;;5019717;28;20197;-65
2021/09/11 11:30:29;;;;;;;5.87;4.30;;;20.30;99.90;;;;;;5027021;28;20207;-66
2021/09/11 11:32:59;;;;;;;6.50;4.30;;;20.30;99.90;;;;;;5015690;28;20182;-66
2021/09/11 11:35:29;;;;;;;5.87;4.10;;;20.40;99.90;;;;;;5024075;28;20287;-65
2021/09/11 11:37:58;;;;;;;4.93;4.40;;;20.40;99.90;;;;;;5025027;28;20202;-66
2021/09/11 11:40:27;;;;;;;5.93;5.07;;;20.30;99.90;;;;;;5026658;28;20248;-66
2021/09/11 11:43:03;;;;;;;12.90;5.20;;;20.20;99.90;;;;;;5008716;28;20204;-65
2021/09/11 11:45:31;;;;;;;8.57;5.53;;;20.10;99.90;;;;;;5010828;28;20708;-66
2021/09/11 11:48:03;;;;;;;9.23;5.50;;;20.10;99.90;;;;;;5019013;28;20198;-67
2021/09/11 11:50:35;;;;;;;10.13;5.07;;;20.10;99.90;;;;;;5019775;28;20232;-65
2021/09/11 11:53:07;;;;;;;6.67;5.03;;;20.10;99.90;;;;;;5021726;28;20205;-65
2021/09/11 11:55:37;;;;;;;5.70;4.77;;;20.10;99.90;;;;;;5020374;28;20206;-65
2021/09/11 11:58:11;;;;;;;8.53;4.67;;;20.20;99.90;;;;;;5021829;28;20625;-66
2021/09/11 12:00:45;;;;;;;4.43;4.03;;;20.30;99.90;;;;;;5018353;28;20247;-65
2021/09/11 12:03:37;;;;;;;5.23;4.70;;;20.30;99.90;;;;;;5013758;28;20296;-65
2021/09/11 12:06:10;;;;;;;8.20;4.93;;;20.30;99.90;;;;;;5020089;28;20771;-65
2021/09/11 12:08:40;;;;;;;6.87;4.77;;;20.20;99.90;;;;;;5015667;28;20218;-66
2021/09/11 12:11:16;;;;;;;6.43;4.57;;;20.30;99.90;;;;;;5019905;28;20198;-65
2021/09/11 12:13:46;;;;;;;9.33;4.53;;;20.30;99.90;;;;;;5024516;28;20284;-66
2021/09/11 12:16:15;;;;;;;6.50;4.87;;;20.40;99.90;;;;;;5022319;28;20718;-65
2021/09/11 12:18:44;;;;;;;8.60;4.87;;;20.50;99.90;;;;;;5012318;28;20650;-65
2021/09/11 12:21:16;;;;;;;5.20;4.40;;;20.40;99.90;;;;;;5020185;28;20201;-65
2021/09/11 12:23:47;;;;;;;5.93;4.47;;;20.40;99.90;;;;;;5020248;28;20293;-66
2021/09/11 12:26:19;;;;;;;7.63;4.80;;;20.50;99.90;;;;;;5017671;28;20566;-66
2021/09/11 12:28:49;;;;;;;6.30;4.70;;;20.50;99.90;;;;;;5023696;28;20205;-66
2021/09/11 12:31:22;;;;;;;8.77;4.17;;;20.50;99.90;;;;;;5022473;28;20664;-65
2021/09/11 12:33:52;;;;;;;7.97;4.23;;;20.50;99.90;;;;;;5020991;28;20200;-65
2021/09/11 12:36:30;;;;;;;6.40;4.10;;;20.60;99.90;;;;;;5023267;28;20351;-66
2021/09/11 12:39:00;;;;;;;4.83;3.80;;;20.60;99.90;;;;;;5033523;28;20688;-67
2021/09/11 12:41:29;;;;;;;4.40;3.47;;;20.60;99.90;;;;;;5019265;28;20205;-67
2021/09/11 12:43:58;;;;;;;3.93;3.63;;;20.70;99.90;;;;;;5014718;28;20324;-66
2021/09/11 12:46:28;;;;;;;6.13;3.90;;;20.80;99.90;;;;;;5024592;28;20292;-66
2021/09/11 12:48:57;;;;;;;3.57;3.27;;;20.90;99.90;;;;;;5015709;28;20280;-67
2021/09/11 12:51:27;;;;;;;4.20;3.43;;;20.90;99.90;;;;;;5016677;28;20193;-66
2021/09/11 12:53:58;;;;;;;4.10;3.33;;;20.90;99.90;;;;;;5017153;28;20237;-68
2021/09/11 12:56:27;;;;;;;6.07;3.37;;;20.90;99.90;;;;;;5018555;28;20221;-65